createdAt,value
2019-03-05T00:01:07.048Z,96.50
2019-03-05T00:03:36.628Z,96.60
2019-03-05T00:06:05.527Z,96.70
2019-03-05T00:08:34.605Z,96.60
2019-03-05T00:11:03.426Z,96.60
2019-03-05T00:13:32.192Z,96.60
2019-03-05T00:16:01.904Z,96.40
2019-03-05T00:18:30.869Z,96.50
2019-03-05T00:20:59.831Z,96.40
2019-03-05T00:23:50.440Z,96.40
2019-03-05T00:26:28.026Z,96.50
2019-03-05T00:28:59.940Z,96.20
2019-03-05T00:32:05.796Z,96.10
2019-03-05T00:34:46.577Z,96.10
2019-03-05T00:37:30.568Z,96.40
2019-03-05T00:40:26.546Z,96.40
2019-03-05T00:43:21.915Z,96.40
2019-03-05T00:45:58.181Z,96.40
2019-03-05T00:48:38.818Z,96.40
2019-03-05T00:51:24.930Z,96.40
2019-03-05T00:54:15.749Z,96.30
2019-03-05T00:57:08.570Z,96.10
2019-03-05T00:59:47.258Z,96.10
2019-03-05T01:02:31.519Z,96.00
2019-03-05T01:05:13.724Z,96.10
2019-03-05T01:07:43.094Z,96.10
2019-03-05T01:10:14.516Z,96.20
2019-03-05T01:12:43.594Z,96.10
2019-03-05T01:15:12.809Z,95.90
2019-03-05T01:17:41.757Z,96.20
2019-03-05T01:20:12.198Z,96.00
2019-03-05T01:22:42.071Z,95.90
2019-03-05T01:25:28.476Z,96.00
2019-03-05T01:27:57.924Z,95.90
2019-03-05T01:30:34.607Z,95.80
2019-03-05T01:33:05.179Z,95.90
2019-03-05T01:35:41.969Z,96.00
2019-03-05T01:38:11.043Z,95.90
2019-03-05T01:40:40.486Z,95.90
2019-03-05T01:43:09.598Z,95.90
2019-03-05T01:45:38.771Z,95.70
2019-03-05T01:48:08.119Z,95.30
2019-03-05T01:50:37.198Z,95.40
2019-03-05T01:53:06.636Z,95.60
2019-03-05T01:55:35.690Z,95.60
2019-03-05T01:58:04.689Z,95.30
2019-03-05T02:00:34.803Z,95.20
2019-03-05T02:03:04.119Z,95.10
2019-03-05T02:05:33.078Z,94.50
2019-03-05T02:08:03.158Z,94.50
2019-03-05T02:10:32.275Z,94.90
2019-03-05T02:13:01.395Z,95.00
2019-03-05T02:15:31.057Z,94.80
2019-03-05T02:18:00.068Z,94.90
2019-03-05T02:20:29.667Z,94.40
2019-03-05T02:23:04.719Z,94.70
2019-03-05T02:25:39.163Z,94.70
2019-03-05T02:28:29.236Z,94.60
2019-03-05T02:31:10.006Z,94.60
2019-03-05T02:33:48.532Z,94.80
2019-03-05T02:36:44.792Z,94.80
2019-03-05T02:39:25.997Z,94.70
2019-03-05T02:42:18.915Z,94.90
2019-03-05T02:45:07.800Z,94.50
2019-03-05T02:47:40.041Z,94.40
2019-03-05T02:50:28.416Z,94.80
2019-03-05T02:53:19.916Z,94.90
2019-03-05T02:56:08.449Z,94.60
2019-03-05T02:58:36.265Z,94.40
2019-03-05T03:01:24.598Z,94.30
2019-03-05T03:03:58.173Z,94.30
2019-03-05T03:06:29.149Z,94.30
2019-03-05T03:09:26.535Z,94.20
2019-03-05T03:11:55.706Z,94.00
2019-03-05T03:14:24.683Z,94.00
2019-03-05T03:16:53.800Z,93.80
2019-03-05T03:19:23.183Z,94.10
2019-03-05T03:21:52.257Z,93.90
2019-03-05T03:24:41.248Z,93.80
2019-03-05T03:27:10.440Z,93.40
2019-03-05T03:29:39.662Z,93.60
2019-03-05T03:32:10.886Z,93.90
2019-03-05T03:34:40.060Z,93.90
2019-03-05T03:37:09.139Z,93.80
2019-03-05T03:39:38.385Z,93.20
2019-03-05T03:42:15.637Z,93.20
2019-03-05T03:44:45.081Z,92.80
2019-03-05T03:47:13.951Z,93.10
2019-03-05T03:49:43.024Z,93.20
2019-03-05T03:52:12.271Z,93.00
2019-03-05T03:54:41.502Z,92.60
2019-03-05T03:57:10.460Z,93.00
2019-03-05T03:59:39.540Z,93.30
2019-03-05T04:02:08.403Z,92.70
2019-03-05T04:04:37.324Z,91.80
2019-03-05T04:07:06.819Z,92.60
2019-03-05T04:09:36.297Z,92.90
2019-03-05T04:12:06.180Z,92.80
2019-03-05T04:14:36.188Z,91.90
2019-03-05T04:17:05.315Z,92.40
2019-03-05T04:19:34.492Z,92.40
2019-03-05T04:22:03.809Z,92.40
2019-03-05T04:24:33.865Z,92.90
2019-03-05T04:27:02.908Z,92.80
2019-03-05T04:29:32.324Z,92.50
2019-03-05T04:32:01.677Z,92.30
2019-03-05T04:34:30.583Z,92.50
2019-03-05T04:37:00.084Z,92.30
2019-03-05T04:39:29.065Z,92.20
2019-03-05T04:41:57.964Z,90.90
2019-03-05T04:44:28.700Z,90.10
2019-03-05T04:46:57.990Z,91.40
2019-03-05T04:49:31.738Z,91.90
2019-03-05T04:52:05.874Z,91.60
2019-03-05T04:54:35.002Z,91.10
2019-03-05T04:57:04.313Z,91.30
2019-03-05T04:59:33.262Z,88.70
2019-03-05T05:02:02.282Z,90.20
2019-03-05T05:04:31.472Z,90.90
2019-03-05T05:07:00.360Z,90.20
2019-03-05T05:09:29.306Z,91.30
2019-03-05T05:11:58.727Z,91.60
2019-03-05T05:14:27.648Z,91.80
2019-03-05T05:16:57.060Z,91.70
2019-03-05T05:19:27.406Z,91.00
2019-03-05T05:21:56.387Z,91.10
2019-03-05T05:24:25.926Z,91.40
2019-03-05T05:26:54.940Z,91.50
2019-03-05T05:29:23.990Z,91.70
2019-03-05T05:31:53.260Z,91.70
2019-03-05T05:34:23.515Z,91.30
2019-03-05T05:36:52.427Z,91.00
2019-03-05T05:39:59.290Z,90.90
2019-03-05T05:42:28.399Z,90.50
2019-03-05T05:44:57.487Z,90.70
2019-03-05T05:47:26.569Z,90.40
2019-03-05T05:49:55.397Z,90.60
2019-03-05T05:52:24.336Z,91.20
2019-03-05T05:54:53.652Z,91.50
2019-03-05T05:57:22.737Z,91.10
2019-03-05T05:59:51.784Z,90.30
2019-03-05T06:02:21.324Z,90.60
2019-03-05T06:04:50.925Z,90.90
2019-03-05T06:07:20.043Z,90.40
2019-03-05T06:09:49.457Z,90.90
2019-03-05T06:12:18.502Z,91.10
2019-03-05T06:14:47.465Z,90.30
2019-03-05T06:17:16.431Z,88.20
2019-03-05T06:19:45.530Z,90.40
2019-03-05T06:22:17.588Z,90.80
2019-03-05T06:24:46.586Z,90.30
2019-03-05T06:27:16.554Z,87.90
2019-03-05T06:29:45.738Z,89.50
2019-03-05T06:32:17.318Z,89.40
2019-03-05T06:34:45.200Z,90.00
2019-03-05T06:37:14.359Z,90.60
2019-03-05T06:39:43.246Z,90.00
2019-03-05T06:42:12.441Z,90.10
2019-03-05T06:44:41.409Z,90.50
2019-03-05T06:47:10.468Z,90.70
2019-03-05T06:49:39.627Z,90.20
2019-03-05T06:52:11.689Z,90.50
2019-03-05T06:54:41.746Z,91.20
2019-03-05T06:57:10.817Z,91.00
2019-03-05T06:59:39.766Z,90.80
2019-03-05T07:02:08.573Z,90.60
2019-03-05T07:04:37.929Z,90.70
2019-03-05T07:07:07.067Z,90.00
2019-03-05T07:09:44.819Z,88.30
2019-03-05T07:12:34.951Z,89.30
2019-03-05T07:15:30.886Z,90.00
2019-03-05T07:18:08.999Z,89.20
2019-03-05T07:20:50.310Z,89.40
2019-03-05T07:23:34.389Z,88.20
2019-03-05T07:26:03.615Z,88.40
2019-03-05T07:28:32.679Z,88.40
2019-03-05T07:31:01.666Z,85.70
2019-03-05T07:33:30.759Z,86.70
2019-03-05T07:35:59.572Z,89.10
2019-03-05T07:38:28.522Z,89.50
2019-03-05T07:40:57.867Z,90.10
2019-03-05T07:43:36.158Z,89.60
2019-03-05T07:45:57.825Z,88.90
2019-03-05T07:48:29.526Z,88.90
2019-03-05T07:50:57.304Z,84.20
2019-03-05T07:53:26.554Z,86.70
2019-03-05T07:55:55.783Z,86.10
2019-03-05T07:58:24.636Z,86.40
2019-03-05T08:00:53.718Z,85.10
2019-03-05T08:03:22.951Z,86.10
2019-03-05T08:05:52.493Z,87.00
2019-03-05T08:08:57.767Z,88.40
2019-03-05T08:11:27.031Z,83.20
2019-03-05T08:14:05.549Z,84.20
2019-03-05T08:16:34.999Z,85.10
2019-03-05T08:19:04.261Z,85.80
2019-03-05T08:21:33.438Z,84.10
2019-03-05T08:24:02.420Z,84.80
2019-03-05T08:26:31.345Z,84.40
2019-03-05T08:29:02.809Z,85.50
2019-03-05T08:31:30.910Z,86.50
2019-03-05T08:33:59.728Z,87.10
2019-03-05T08:36:28.766Z,87.20
2019-03-05T08:38:58.033Z,87.10
2019-03-05T08:41:27.518Z,87.30
2019-03-05T08:43:56.758Z,85.70
2019-03-05T08:46:25.709Z,84.90
2019-03-05T08:48:55.343Z,83.50
2019-03-05T08:51:24.512Z,83.20
2019-03-05T08:53:53.624Z,83.70
2019-03-05T08:56:22.853Z,84.60
2019-03-05T08:58:52.394Z,84.60
2019-03-05T09:01:21.587Z,86.20
2019-03-05T09:03:50.827Z,86.30
2019-03-05T09:06:39.220Z,87.00
2019-03-05T09:09:09.986Z,86.30
2019-03-05T09:11:39.006Z,84.50
2019-03-05T09:14:08.312Z,86.70
2019-03-05T09:16:37.649Z,81.10
2019-03-05T09:19:06.549Z,85.10
2019-03-05T09:21:35.845Z,86.60
2019-03-05T09:24:05.127Z,85.20
2019-03-05T09:26:33.982Z,85.00
2019-03-05T09:29:03.119Z,85.20
2019-03-05T09:31:32.278Z,83.90
2019-03-05T09:34:01.054Z,84.10
2019-03-05T09:36:30.582Z,84.20
2019-03-05T09:39:00.151Z,85.00
2019-03-05T09:41:29.391Z,81.70
2019-03-05T09:43:59.253Z,83.80
2019-03-05T09:46:28.169Z,83.20
2019-03-05T09:48:57.032Z,83.50
2019-03-05T09:51:26.522Z,84.70
2019-03-05T09:53:55.613Z,85.60
2019-03-05T09:56:25.131Z,85.10
2019-03-05T09:58:54.488Z,84.80
2019-03-05T10:01:44.130Z,85.80
2019-03-05T10:04:13.209Z,84.50
2019-03-05T10:06:42.195Z,84.00
2019-03-05T10:09:11.440Z,83.80
2019-03-05T10:11:40.742Z,84.10
2019-03-05T10:14:09.598Z,83.30
2019-03-05T10:16:38.622Z,79.40
2019-03-05T10:19:08.670Z,81.20
2019-03-05T10:21:45.765Z,80.80
2019-03-05T10:24:10.695Z,80.90
2019-03-05T10:26:39.823Z,81.80
2019-03-05T10:29:08.807Z,82.60
2019-03-05T10:31:39.290Z,79.80
2019-03-05T10:34:08.250Z,78.10
2019-03-05T10:36:37.352Z,77.80
2019-03-05T10:39:10.149Z,80.10
2019-03-05T10:41:39.073Z,79.50
2019-03-05T10:44:09.287Z,81.10
2019-03-05T10:46:38.278Z,83.10
2019-03-05T10:49:07.357Z,83.40
2019-03-05T10:51:36.243Z,82.30
2019-03-05T10:54:06.711Z,83.40
2019-03-05T10:56:35.708Z,81.50
2019-03-05T10:59:05.490Z,79.50
2019-03-05T11:01:36.255Z,80.20
2019-03-05T11:04:09.039Z,79.80
2019-03-05T11:06:38.442Z,78.30
2019-03-05T11:09:08.363Z,80.20
2019-03-05T11:11:37.253Z,80.40
2019-03-05T11:14:06.792Z,78.70
2019-03-05T11:16:35.959Z,70.30
2019-03-05T11:19:05.357Z,73.90
2019-03-05T11:21:35.506Z,74.40
2019-03-05T11:24:04.559Z,73.20
2019-03-05T11:26:33.686Z,74.50
2019-03-05T11:29:03.094Z,74.30
2019-03-05T11:31:32.751Z,71.40
2019-03-05T11:34:01.599Z,77.10
2019-03-05T11:36:31.313Z,75.10
2019-03-05T11:39:00.171Z,77.00
2019-03-05T11:41:29.280Z,73.40
2019-03-05T11:43:58.389Z,71.50
2019-03-05T11:46:27.360Z,73.90
2019-03-05T11:48:56.684Z,75.70
2019-03-05T11:51:25.749Z,76.00
2019-03-05T11:53:54.614Z,76.40
2019-03-05T11:56:23.792Z,72.30
2019-03-05T11:58:52.729Z,74.20
2019-03-05T12:01:23.657Z,73.90
2019-03-05T12:03:53.500Z,75.00
2019-03-05T12:06:24.123Z,76.70
2019-03-05T12:08:52.960Z,76.90
2019-03-05T12:11:24.533Z,75.30
2019-03-05T12:13:53.448Z,76.90
2019-03-05T12:16:23.483Z,77.90
2019-03-05T12:18:53.042Z,78.50
2019-03-05T12:21:22.030Z,77.60
2019-03-05T12:23:51.063Z,77.30
2019-03-05T12:26:20.790Z,77.70
2019-03-05T12:28:49.858Z,76.90
2019-03-05T12:31:18.917Z,78.10
2019-03-05T12:33:48.155Z,78.80
2019-03-05T12:36:17.545Z,75.30
2019-03-05T12:38:47.205Z,76.50
2019-03-05T12:41:17.092Z,78.00
2019-03-05T12:43:46.674Z,78.70
2019-03-05T12:46:15.616Z,78.90
2019-03-05T12:48:45.513Z,78.90
2019-03-05T12:51:14.900Z,78.00
2019-03-05T12:53:43.814Z,74.80
2019-03-05T12:56:23.082Z,75.70
2019-03-05T12:58:43.654Z,73.80
2019-03-05T13:01:12.765Z,72.00
2019-03-05T13:03:42.481Z,71.70
2019-03-05T13:06:11.441Z,74.60
2019-03-05T13:08:40.902Z,77.90
2019-03-05T13:11:12.980Z,77.60
2019-03-05T13:13:47.496Z,75.60
2019-03-05T13:16:15.963Z,73.90
2019-03-05T13:18:45.399Z,74.70
2019-03-05T13:21:14.797Z,76.10
2019-03-05T13:23:44.539Z,76.30
2019-03-05T13:26:13.364Z,77.10
2019-03-05T13:28:42.241Z,75.50
2019-03-05T13:31:14.629Z,70.30
2019-03-05T13:33:43.443Z,72.40
2019-03-05T13:36:13.458Z,74.60
2019-03-05T13:38:45.391Z,75.80
2019-03-05T13:41:15.530Z,75.60
2019-03-05T13:43:45.714Z,75.00
2019-03-05T13:46:14.924Z,75.50
2019-03-05T13:49:01.981Z,76.00
2019-03-05T13:52:09.150Z,74.60
2019-03-05T13:55:01.876Z,71.90
2019-03-05T13:57:57.593Z,72.80
2019-03-05T14:00:26.913Z,73.60
2019-03-05T14:03:02.035Z,72.60
2019-03-05T14:05:41.826Z,72.30
2019-03-05T14:08:31.609Z,71.40
2019-03-05T14:11:00.687Z,72.20
2019-03-05T14:13:32.716Z,69.80
2019-03-05T14:16:02.105Z,71.50
2019-03-05T14:18:32.439Z,71.30
2019-03-05T14:21:01.356Z,71.50
2019-03-05T14:23:30.491Z,71.20
2019-03-05T14:25:59.522Z,69.30
2019-03-05T14:28:28.593Z,70.20
2019-03-05T14:30:58.394Z,69.70
2019-03-05T14:33:27.963Z,67.10
2019-03-05T14:35:59.676Z,67.40
2019-03-05T14:38:28.977Z,66.70
2019-03-05T14:40:58.102Z,69.40
2019-03-05T14:43:27.670Z,68.30
2019-03-05T14:45:56.947Z,69.20
2019-03-05T14:48:30.159Z,63.50
2019-03-05T14:50:58.970Z,64.60
2019-03-05T14:53:28.266Z,66.80
2019-03-05T14:55:57.499Z,66.80
2019-03-05T14:58:26.866Z,69.00
2019-03-05T15:00:56.066Z,66.10
2019-03-05T15:03:25.935Z,66.10
2019-03-05T15:05:55.003Z,67.00
2019-03-05T15:08:24.473Z,68.70
2019-03-05T15:11:13.220Z,68.90
2019-03-05T15:13:42.519Z,68.00
2019-03-05T15:16:14.921Z,65.30
2019-03-05T15:18:43.890Z,65.70
2019-03-05T15:21:13.147Z,65.30
2019-03-05T15:23:42.380Z,67.90
2019-03-05T15:26:11.567Z,68.40
2019-03-05T15:28:40.720Z,68.20
2019-03-05T15:31:16.842Z,68.20
2019-03-05T15:33:42.447Z,67.00
2019-03-05T15:36:23.228Z,67.10
2019-03-05T15:38:42.886Z,65.80
2019-03-05T15:41:12.260Z,65.80
2019-03-05T15:43:41.823Z,66.40
2019-03-05T15:46:11.337Z,66.60
2019-03-05T15:48:40.575Z,66.70
2019-03-05T15:51:09.843Z,67.90
2019-03-05T15:53:40.022Z,65.80
2019-03-05T15:56:09.200Z,64.70
2019-03-05T15:58:39.383Z,65.10
2019-03-05T16:01:09.921Z,65.00
2019-03-05T16:03:42.266Z,63.90
2019-03-05T16:06:14.028Z,64.20
2019-03-05T16:08:43.929Z,64.60
2019-03-05T16:11:14.681Z,65.00
2019-03-05T16:13:45.778Z,66.40
2019-03-05T16:16:18.454Z,66.70
2019-03-05T16:18:47.497Z,66.50
2019-03-05T16:21:16.705Z,64.80
2019-03-05T16:23:45.756Z,63.90
2019-03-05T16:26:14.770Z,64.30
2019-03-05T16:28:44.998Z,65.30
2019-03-05T16:31:17.244Z,65.10
2019-03-05T16:33:57.088Z,65.60
2019-03-05T16:36:29.185Z,66.60
2019-03-05T16:39:01.986Z,63.80
2019-03-05T16:41:53.316Z,66.30
2019-03-05T16:44:40.513Z,66.90
2019-03-05T16:47:21.187Z,68.20
2019-03-05T16:50:01.308Z,68.90
2019-03-05T16:52:40.728Z,68.90
2019-03-05T16:55:30.665Z,70.10
2019-03-05T16:58:01.642Z,69.10
2019-03-05T17:00:49.423Z,66.80
2019-03-05T17:03:20.705Z,67.60
2019-03-05T17:05:51.650Z,68.80
2019-03-05T17:08:24.923Z,70.50
2019-03-05T17:11:10.621Z,70.30
2019-03-05T17:13:40.101Z,69.40
2019-03-05T17:16:30.230Z,69.70
2019-03-05T17:18:59.649Z,69.20
2019-03-05T17:21:30.758Z,68.80
2019-03-05T17:24:00.584Z,68.00
2019-03-05T17:26:31.204Z,67.40
2019-03-05T17:29:00.271Z,66.30
2019-03-05T17:31:29.488Z,64.90
2019-03-05T17:33:58.590Z,65.00
2019-03-05T17:36:28.032Z,66.10
2019-03-05T17:38:57.141Z,66.40
2019-03-05T17:41:26.556Z,65.70
2019-03-05T17:44:14.634Z,67.60
2019-03-05T17:46:52.236Z,66.50
2019-03-05T17:49:21.596Z,66.30
2019-03-05T17:51:50.726Z,66.60
2019-03-05T17:54:20.663Z,65.70
2019-03-05T17:56:49.804Z,65.40
2019-03-05T17:59:18.934Z,64.90
2019-03-05T18:01:47.981Z,64.80
2019-03-05T18:04:17.176Z,65.40
2019-03-05T18:06:46.149Z,64.20
2019-03-05T18:09:21.728Z,64.80
2019-03-05T18:11:53.271Z,65.70
2019-03-05T18:14:22.441Z,66.30
2019-03-05T18:16:51.419Z,66.20
2019-03-05T18:19:20.662Z,66.30
2019-03-05T18:21:50.011Z,64.60
2019-03-05T18:24:19.560Z,65.60
2019-03-05T18:26:48.454Z,66.00
2019-03-05T18:29:18.262Z,65.00
2019-03-05T18:31:48.465Z,64.90
2019-03-05T18:34:18.558Z,65.70
2019-03-05T18:36:49.288Z,64.60
2019-03-05T18:39:19.993Z,65.30
2019-03-05T18:41:50.207Z,64.50
2019-03-05T18:44:19.267Z,65.20
2019-03-05T18:46:49.532Z,65.70
2019-03-05T18:49:19.202Z,66.40
2019-03-05T18:51:48.177Z,67.30
2019-03-05T18:54:17.454Z,68.10
2019-03-05T18:56:48.923Z,67.40
2019-03-05T18:59:18.478Z,67.20
2019-03-05T19:01:48.409Z,66.30
2019-03-05T19:04:17.585Z,64.80
2019-03-05T19:06:53.662Z,64.50
2019-03-05T19:09:22.777Z,64.60
2019-03-05T19:11:52.499Z,65.80
2019-03-05T19:14:21.866Z,65.70
2019-03-05T19:16:51.111Z,64.60
2019-03-05T19:19:20.306Z,64.90
2019-03-05T19:21:49.639Z,64.90
2019-03-05T19:24:18.998Z,65.70
2019-03-05T19:26:47.959Z,66.70
2019-03-05T19:29:19.006Z,67.20
2019-03-05T19:31:49.129Z,66.40
2019-03-05T19:34:18.258Z,67.00
2019-03-05T19:36:47.486Z,66.10
2019-03-05T19:39:16.794Z,65.80
2019-03-05T19:41:45.782Z,65.00
2019-03-05T19:44:14.637Z,65.10
2019-03-05T19:46:43.919Z,65.80
2019-03-05T19:49:13.943Z,65.60
2019-03-05T19:51:43.725Z,65.90
2019-03-05T19:54:12.666Z,66.10
2019-03-05T19:56:42.132Z,66.70
2019-03-05T19:59:11.255Z,66.50
2019-03-05T20:01:40.320Z,66.40
2019-03-05T20:04:11.970Z,66.50
2019-03-05T20:06:40.708Z,66.90
2019-03-05T20:09:13.388Z,67.10
2019-03-05T20:11:42.274Z,66.70
2019-03-05T20:14:12.930Z,67.00
2019-03-05T20:16:41.921Z,67.10
2019-03-05T20:19:11.332Z,67.40
2019-03-05T20:21:41.818Z,67.20
2019-03-05T20:24:10.920Z,67.50
2019-03-05T20:26:40.602Z,67.80
2019-03-05T20:29:10.824Z,67.80
2019-03-05T20:31:40.292Z,67.60
2019-03-05T20:34:10.688Z,67.90
2019-03-05T20:36:39.835Z,67.80
2019-03-05T20:39:08.777Z,67.50
2019-03-05T20:41:40.655Z,67.80
2019-03-05T20:44:09.692Z,67.80
2019-03-05T20:46:41.364Z,68.00
2019-03-05T20:49:10.521Z,68.00
2019-03-05T20:51:39.607Z,68.00
2019-03-05T20:54:09.159Z,67.90
2019-03-05T20:56:38.236Z,67.60
2019-03-05T20:59:07.786Z,68.20
2019-03-05T21:01:37.317Z,68.90
2019-03-05T21:04:06.763Z,68.50
2019-03-05T21:06:35.611Z,69.10
2019-03-05T21:09:06.291Z,69.00
2019-03-05T21:11:35.410Z,68.80
2019-03-05T21:14:04.992Z,68.40
2019-03-05T21:16:34.287Z,66.80
2019-03-05T21:19:03.848Z,66.50
2019-03-05T21:21:33.412Z,66.70
2019-03-05T21:24:05.786Z,66.40
2019-03-05T21:26:34.376Z,66.30
2019-03-05T21:29:03.480Z,66.40
2019-03-05T21:31:33.069Z,66.90
2019-03-05T21:34:02.132Z,66.60
2019-03-05T21:36:30.998Z,66.70
2019-03-05T21:39:02.020Z,67.30
2019-03-05T21:41:31.006Z,67.90
2019-03-05T21:44:05.550Z,68.60
2019-03-05T21:46:35.638Z,68.70
2019-03-05T21:49:04.699Z,68.70
2019-03-05T21:51:34.094Z,69.10
2019-03-05T21:54:03.541Z,69.00
2019-03-05T21:56:32.490Z,68.90
2019-03-05T21:59:01.531Z,69.00
2019-03-05T22:01:52.385Z,69.40
2019-03-05T22:04:25.627Z,69.60
2019-03-05T22:06:54.516Z,69.80
2019-03-05T22:09:23.645Z,70.00
2019-03-05T22:12:06.798Z,69.50
2019-03-05T22:14:38.011Z,69.00
2019-03-05T22:17:07.288Z,68.70
2019-03-05T22:19:40.132Z,69.30
2019-03-05T22:22:09.102Z,70.00
2019-03-05T22:24:38.095Z,69.80
2019-03-05T22:27:23.128Z,70.10
2019-03-05T22:30:14.638Z,69.60
2019-03-05T22:32:46.294Z,69.50
2019-03-05T22:35:16.071Z,70.40
2019-03-05T22:40:31.092Z,69.30
2019-03-05T22:43:00.813Z,68.00
2019-03-05T22:45:32.091Z,69.50
2019-03-05T22:48:01.167Z,69.80
2019-03-05T22:50:50.066Z,70.50
2019-03-05T22:53:19.317Z,70.10
2019-03-05T22:56:08.056Z,68.70
2019-03-05T22:58:51.038Z,67.90
2019-03-05T23:01:52.986Z,66.70
2019-03-05T23:04:24.908Z,66.00
2019-03-05T23:07:25.455Z,65.70
2019-03-05T23:10:09.082Z,66.30
2019-03-05T23:12:38.740Z,68.10
2019-03-05T23:15:10.718Z,70.10
2019-03-05T23:17:39.762Z,69.30
2019-03-05T23:20:11.192Z,70.10
2019-03-05T23:22:40.155Z,71.20
2019-03-05T23:26:10.759Z,70.70
2019-03-05T23:28:55.324Z,71.20
2019-03-05T23:31:24.779Z,71.70
2019-03-05T23:33:53.694Z,72.20
2019-03-05T23:36:22.897Z,71.70
2019-03-05T23:39:05.825Z,71.70
2019-03-05T23:41:34.936Z,71.50
2019-03-05T23:44:04.303Z,71.90
2019-03-05T23:46:35.828Z,71.80
2019-03-05T23:49:27.907Z,71.30
2019-03-05T23:52:07.077Z,70.80
2019-03-05T23:54:36.740Z,71.20
2019-03-05T23:57:05.648Z,72.00
2019-03-05T23:59:54.633Z,72.30
